Eleven Mile, Pennsylvania
Current Conditions -  °F | °C
As of 10:56 PM on Tuesday 21 Oct 2014 (Local Time) from KELZ Reporting Station
Overcast Overcast  
Wind Chill: 42°   Ceiling: 200
Heat Index: 46°   Visibility: 9mi
Dew Point: 44°   Wind: 7mph
Humidity: 93%   Direction: 340°NNW
Pressure: 30.01"   Gusts: NA
Location:  41.915°N, 77.8855°W
Report Text: KELZ 220256Z AUTO 34006KT 9SM OVC002 08/07 A3001 RMK AO2 SLP170 T00780067 51018
Loading
Personal Weather Stations






























Interactive Weather Map
Tropical Storm Tracking
New forecast layout! Learn more

10-Day Weather Forecast

Advertisements
Track Severe Weather on mobile